Thunder radar more information blitzortung!


Radar de pluja more information rain snow radar


Visita la nostra xarxa de llocs de meteo:

Template documentation
and downloads

And another site



No particular awareness of the weather is required.    There are no Weather-warnings

Pagina Historial Weather Underground text

Diari Resum Novembre 12, 2017 Unitats:  Imperial    Mètric   Tant
« Previous Dia
SegĂźent Dia »
Diari Setmana Mensual Anual Personalitzada
  Maxima: Minima: Media:
Temperatura: TemperatureC °F 7.7 °F 12.3 °F
Punt de rosada: DewpointC °F 2.9 °F 5.9 °F
Humitat: Humidity % 53 % 65 %
Wind Speed: WindSpeedKMH mph 0.0 mph 5.1 mph
RĂ fegues de vent: WindSpeedGustKMH mph - -
Vent:- - SSE
Pression baro: PressurehPa in 1010.0 in -
Precipitacions: 0.0 in    
Historical Graphs
 
 
Dades de taula per Novembre 12, 2017
Temps Temperatura Punt de rosada Pression baro Vent Wind Speed RĂ fegues de vent Humitat Rainfall Rate (Hourly)
TemperatureC °F DewpointC °F PressurehPa in Calm     Humidity % HourlyPrecipMM in
00:04 11.2 °F 5.1 °F 1021.9 in NNW 1.9 mph   66 % 0.0 in
00:09 11.2 °F 5.1 °F 1021.9 in NNW 1.9 mph   66 % 0.0 in
00:14 11.1 °F 5.0 °F 1021.9 in NNE 3.7 mph 3.7 mph 66 % 0.0 in
00:19 11.0 °F 4.9 °F 1021.9 in NE 3.7 mph 3.7 mph 66 % 0.0 in
00:24 11.0 °F 5.1 °F 1021.9 in Calm     67 % 0.0 in
00:29 11.1 °F 5.2 °F 1021.9 in NNW 2.6 mph   67 % 0.0 in
00:34 11.0 °F 4.9 °F 1021.9 in NW 2.6 mph 2.6 mph 66 % 0.0 in
00:39 11.0 °F 5.1 °F 1021.9 in Calm     67 % 0.0 in
00:44 11.0 °F 5.1 °F 1021.9 in NNW 2.6 mph   67 % 0.0 in
00:49 10.8 °F 4.9 °F 1021.9 in NNW 1.9 mph   67 % 0.0 in
00:54 10.8 °F 4.9 °F 1021.9 in NNE 2.3 mph   67 % 0.0 in
00:56 10.8 °F 4.9 °F 1021.9 in ENE 3.7 mph 3.7 mph 67 % 0.0 in
01:01 10.8 °F 4.9 °F 1021.9 in NE 3.7 mph 3.7 mph 67 % 0.0 in
01:06 10.8 °F 4.9 °F 1021.9 in NE 3.7 mph 3.7 mph 67 % 0.0 in
01:11 10.6 °F 4.5 °F 1021.9 in NNE 3.9 mph 3.9 mph 66 % 0.0 in
01:16 10.6 °F 4.7 °F 1021.9 in NNE 3.7 mph 3.7 mph 67 % 0.0 in
01:21 10.5 °F 4.6 °F 1020.9 in NNE 3.7 mph 3.7 mph 67 % 0.0 in
01:26 10.5 °F 4.6 °F 1020.9 in NNW 3.7 mph   67 % 0.0 in
01:31 10.4 °F 4.6 °F 1020.9 in NE 1.9 mph 1.9 mph 67 % 0.0 in
01:36 10.4 °F 4.6 °F 1020.9 in North 3.7 mph 3.7 mph 67 % 0.0 in
01:41 10.2 °F 4.3 °F 1020.9 in NNE 3.7 mph 3.7 mph 67 % 0.0 in
01:46 10.2 °F 4.3 °F 1020.9 in West 3.7 mph 3.7 mph 67 % 0.0 in
01:51 9.9 °F 4.1 °F 1019.9 in West 5.6 mph   67 % 0.0 in
01:56 10.2 °F 4.3 °F 1019.9 in NNW 7.4 mph 7.4 mph 67 % 0.0 in
02:01 10.0 °F 4.2 °F 1019.9 in West 3.7 mph 3.7 mph 67 % 0.0 in
02:06 9.9 °F 4.1 °F 1019.9 in West 3.7 mph 3.7 mph 67 % 0.0 in
02:11 10.1 °F 4.2 °F 1019.9 in West 3.7 mph   67 % 0.0 in
02:16 10.1 °F 4.4 °F 1019.9 in WNW 1.9 mph   68 % 0.0 in
02:21 10.2 °F 4.6 °F 1019.9 in NNW 1.9 mph   68 % 0.0 in
02:26 10.1 °F 4.4 °F 1019.9 in WNW 2.6 mph   68 % 0.0 in
02:31 10.1 °F 4.4 °F 1019.9 in WNW 2.6 mph 2.6 mph 68 % 0.0 in
02:36 10.0 °F 4.3 °F 1019.9 in WNW 3.9 mph 3.9 mph 68 % 0.0 in
02:41 10.0 °F 4.3 °F 1019.9 in NE 1.9 mph 2.3 mph 68 % 0.0 in
02:47 9.9 °F 4.3 °F 1019.9 in SW 2.3 mph 2.3 mph 68 % 0.0 in
02:52 9.8 °F 4.2 °F 1018.8 in WSW 2.6 mph 2.6 mph 68 % 0.0 in
02:57 9.7 °F 4.3 °F 1018.8 in SSW 2.3 mph 2.3 mph 69 % 0.0 in
03:02 9.5 °F 4.1 °F 1018.8 in Calm     69 % 0.0 in
03:07 9.4 °F 4.0 °F 1019.9 in SSW 1.9 mph   69 % 0.0 in
03:12 9.4 °F 4.0 °F 1019.9 in SSW 3.7 mph 3.7 mph 69 % 0.0 in
03:17 9.3 °F 3.9 °F 1019.9 in SW 3.7 mph 3.7 mph 69 % 0.0 in
03:22 9.2 °F 3.8 °F 1019.9 in West 1.9 mph 1.9 mph 69 % 0.0 in
03:27 9.3 °F 4.1 °F 1019.9 in Calm     70 % 0.0 in
03:32 9.3 °F 4.1 °F 1019.9 in NNE 3.7 mph 3.7 mph 70 % 0.0 in
03:37 9.4 °F 4.2 °F 1019.9 in North 2.6 mph   70 % 0.0 in
03:42 9.5 °F 4.3 °F 1019.9 in NE 5.6 mph 5.6 mph 70 % 0.0 in
03:47 9.6 °F 4.4 °F 1019.9 in Calm     70 % 0.0 in
03:52 9.5 °F 4.3 °F 1019.9 in Calm     70 % 0.0 in
03:57 9.4 °F 4.2 °F 1019.9 in NNE 3.7 mph 3.7 mph 70 % 0.0 in
04:02 9.4 °F 4.2 °F 1019.9 in NW 1.9 mph   70 % 0.0 in
04:07 9.4 °F 4.2 °F 1019.9 in WNW 1.9 mph   70 % 0.0 in
04:13 9.4 °F 4.2 °F 1019.9 in NE 3.7 mph 3.7 mph 70 % 0.0 in
04:18 9.4 °F 4.2 °F 1019.9 in NE 3.7 mph 3.7 mph 70 % 0.0 in
04:23 9.2 °F 4.0 °F 1019.9 in ENE 3.7 mph 3.7 mph 70 % 0.0 in
04:24 9.2 °F 4.0 °F 1019.9 in NNE 4.2 mph 4.2 mph 70 % 0.0 in
04:25 9.2 °F 4.0 °F 1019.9 in NNE 5.6 mph 5.6 mph 70 % 0.0 in
04:28 9.2 °F 4.2 °F 1019.9 in North 3.7 mph 3.7 mph 71 % 0.0 in
04:30 9.2 °F 4.0 °F 1019.9 in North 5.6 mph 5.6 mph 70 % 0.0 in
04:35 9.2 °F 4.0 °F 1019.9 in North 3.7 mph 3.7 mph 70 % 0.0 in
04:40 9.2 °F 4.0 °F 1019.9 in WSW 3.7 mph 3.7 mph 70 % 0.0 in
04:45 9.1 °F 4.1 °F 1019.9 in Calm     71 % 0.0 in
04:50 9.0 °F 4.0 °F 1020.9 in NNE 2.6 mph   71 % 0.0 in
05:00 8.8 °F 3.8 °F 1020.9 in NE 1.9 mph   71 % 0.0 in
05:05 8.8 °F 4.0 °F 1019.9 in NE 1.9 mph   72 % 0.0 in
05:10 8.7 °F 3.9 °F 1019.9 in Calm     72 % 0.0 in
05:15 8.6 °F 3.8 °F 1019.9 in Calm     72 % 0.0 in
05:20 8.5 °F 3.7 °F 1019.9 in NW 1.9 mph   72 % 0.0 in
05:25 8.4 °F 3.7 °F 1019.9 in SW 3.5 mph 3.5 mph 72 % 0.0 in
05:30 8.2 °F 3.4 °F 1019.9 in SSE 1.9 mph   72 % 0.0 in
05:35 8.1 °F 3.3 °F 1019.9 in NNE 5.6 mph 5.6 mph 72 % 0.0 in
05:40 8.1 °F 3.6 °F 1019.9 in ENE 1.9 mph   73 % 0.0 in
05:45 7.8 °F 3.3 °F 1019.9 in Calm     73 % 0.0 in
05:50 7.7 °F 2.9 °F 1018.8 in WSW 3.7 mph 3.7 mph 72 % 0.0 in
05:55 7.9 °F 3.3 °F 1018.8 in West 3.7 mph 3.7 mph 73 % 0.0 in
06:00 8.1 °F 3.6 °F 1018.8 in ENE 5.6 mph 5.6 mph 73 % 0.0 in
06:05 8.5 °F 4.1 °F 1019.9 in WNW 5.6 mph 5.6 mph 74 % 0.0 in
06:10 8.6 °F 4.1 °F 1019.9 in ENE 5.6 mph 5.6 mph 73 % 0.0 in
06:15 8.6 °F 4.1 °F 1019.9 in NNE 3.7 mph 3.7 mph 73 % 0.0 in
06:20 8.7 °F 4.1 °F 1019.9 in NNE 5.6 mph 5.6 mph 73 % 0.0 in
06:30 8.7 °F 4.1 °F 1019.9 in East 1.9 mph 2.3 mph 73 % 0.0 in
06:35 8.7 °F 4.1 °F 1019.9 in NNW 5.6 mph 5.6 mph 73 % 0.0 in
06:40 8.6 °F 4.1 °F 1019.9 in NNW 5.6 mph 5.6 mph 73 % 0.0 in
06:45 8.6 °F 4.1 °F 1019.9 in NW 5.6 mph 5.6 mph 73 % 0.0 in
06:50 8.7 °F 4.1 °F 1019.9 in ENE 5.6 mph 5.6 mph 73 % 0.0 in
06:55 8.7 °F 4.1 °F 1019.9 in NNW 5.6 mph 5.6 mph 73 % 0.0 in
07:00 8.7 °F 4.1 °F 1019.9 in NNW 3.7 mph 3.7 mph 73 % 0.0 in
07:05 8.6 °F 4.1 °F 1019.9 in WNW 3.7 mph 3.7 mph 73 % 0.0 in
07:10 8.5 °F 3.9 °F 1019.9 in WNW 3.7 mph 3.7 mph 73 % 0.0 in
07:15 8.5 °F 3.9 °F 1019.9 in NNW 5.6 mph 5.6 mph 73 % 0.0 in
07:20 8.4 °F 3.8 °F 1019.9 in WNW 1.9 mph 1.9 mph 73 % 0.0 in
07:21 8.3 °F 3.7 °F 1019.9 in West 1.9 mph 1.9 mph 73 % 0.0 in
07:26 8.3 °F 3.7 °F 1019.9 in NNE 3.9 mph 3.9 mph 73 % 0.0 in
07:27 8.3 °F 3.7 °F 1019.9 in NW 3.7 mph 3.7 mph 73 % 0.0 in
07:32 8.2 °F 3.8 °F 1019.9 in ENE 3.7 mph 3.7 mph 74 % 0.0 in
07:37 8.3 °F 3.9 °F 1019.9 in NE 3.7 mph 3.7 mph 74 % 0.0 in
07:42 8.4 °F 4.1 °F 1019.9 in East 3.7 mph 3.7 mph 74 % 0.0 in
07:43 8.4 °F 4.1 °F 1019.9 in ENE 3.7 mph 3.7 mph 74 % 0.0 in
07:48 8.6 °F 4.2 °F 1019.9 in NE 7.6 mph 7.6 mph 74 % 0.0 in
07:53 8.7 °F 4.3 °F 1019.9 in NNE 7.6 mph 7.6 mph 74 % 0.0 in
07:58 8.8 °F 4.4 °F 1019.9 in WSW 2.6 mph   74 % 0.0 in
08:03 8.9 °F 4.5 °F 1019.9 in WSW 1.9 mph   74 % 0.0 in
08:08 8.8 °F 4.4 °F 1019.9 in NW 1.9 mph   74 % 0.0 in
08:13 9.0 °F 4.6 °F 1019.9 in NW 1.9 mph   74 % 0.0 in
08:18 9.3 °F 4.9 °F 1019.9 in ENE 3.7 mph 3.7 mph 74 % 0.0 in
08:23 9.2 °F 4.6 °F 1019.9 in SW 3.7 mph 3.7 mph 73 % 0.0 in
08:28 9.5 °F 4.9 °F 1019.9 in NNE 2.3 mph 2.3 mph 73 % 0.0 in
08:33 9.9 °F 5.3 °F 1019.9 in North 3.7 mph 3.7 mph 73 % 0.0 in
08:38 10.1 °F 5.5 °F 1019.9 in ENE 3.7 mph 3.7 mph 73 % 0.0 in
08:43 10.4 °F 5.6 °F 1019.9 in WNW 3.7 mph 3.7 mph 72 % 0.0 in
08:48 10.7 °F 5.8 °F 1019.9 in ENE 2.6 mph 2.6 mph 72 % 0.0 in
08:53 11.0 °F 6.2 °F 1019.9 in West 3.7 mph 3.7 mph 72 % 0.0 in
08:58 11.0 °F 5.9 °F 1019.9 in ENE 5.0 mph 5.0 mph 71 % 0.0 in
09:03 11.2 °F 6.1 °F 1019.9 in NNW 3.7 mph 3.7 mph 71 % 0.0 in
09:08 11.5 °F 6.4 °F 1019.9 in NW 3.7 mph 3.7 mph 71 % 0.0 in
09:13 11.4 °F 6.1 °F 1019.9 in NE 5.6 mph 5.6 mph 70 % 0.0 in
09:18 11.6 °F 6.1 °F 1019.9 in North 5.6 mph 5.6 mph 69 % 0.0 in
09:23 11.7 °F 6.2 °F 1019.9 in ENE 5.6 mph 5.6 mph 69 % 0.0 in
09:28 12.1 °F 6.6 °F 1019.9 in NNE 1.9 mph   69 % 0.0 in
09:34 12.2 °F 6.7 °F 1019.9 in NNE 3.7 mph 4.2 mph 69 % 0.0 in
09:39 12.2 °F 6.4 °F 1019.9 in NNE 7.4 mph 7.4 mph 68 % 0.0 in
09:44 12.1 °F 6.4 °F 1019.9 in NNE 9.0 mph 9.0 mph 68 % 0.0 in
09:49 12.0 °F 6.3 °F 1019.9 in North 8.7 mph 8.7 mph 68 % 0.0 in
09:54 12.0 °F 6.3 °F 1018.8 in ENE 7.4 mph 7.4 mph 68 % 0.0 in
09:59 12.2 °F 6.4 °F 1018.8 in ENE 7.4 mph 7.4 mph 68 % 0.0 in
10:04 12.4 °F 6.4 °F 1018.8 in NNE 10.0 mph 10.0 mph 67 % 0.0 in
10:09 12.4 °F 6.4 °F 1019.9 in ENE 9.5 mph 9.5 mph 67 % 0.0 in
10:14 12.9 °F 6.9 °F 1019.9 in NE 3.7 mph 3.7 mph 67 % 0.0 in
10:19 13.1 °F 7.1 °F 1019.9 in ENE 5.6 mph 5.6 mph 67 % 0.0 in
10:24 13.3 °F 7.3 °F 1019.9 in NNE 5.6 mph 5.6 mph 67 % 0.0 in
10:29 13.6 °F 7.6 °F 1019.9 in NW 5.6 mph 5.6 mph 67 % 0.0 in
10:34 14.0 °F 7.7 °F 1019.9 in WSW 5.0 mph 5.0 mph 66 % 0.0 in
10:39 14.2 °F 7.7 °F 1019.9 in West 7.4 mph 7.4 mph 65 % 0.0 in
10:44 14.2 °F 7.7 °F 1019.9 in NNE 7.4 mph 7.4 mph 65 % 0.0 in
10:49 14.2 °F 7.7 °F 1019.9 in West 7.9 mph 7.9 mph 65 % 0.0 in
10:54 14.4 °F 7.7 °F 1019.9 in West 3.7 mph 3.7 mph 64 % 0.0 in
10:59 14.7 °F 7.9 °F 1019.9 in North 5.6 mph 5.6 mph 64 % 0.0 in
11:04 14.6 °F 7.9 °F 1019.9 in NNW 9.3 mph 9.3 mph 64 % 0.0 in
11:09 14.8 °F 7.8 °F 1019.9 in South 6.4 mph 6.4 mph 63 % 0.0 in
11:14 14.9 °F 7.9 °F 1019.9 in WSW 5.6 mph 5.6 mph 63 % 0.0 in
11:19 15.0 °F 8.0 °F 1019.9 in WNW 6.9 mph 6.9 mph 63 % 0.0 in
11:24 15.1 °F 8.1 °F 1019.9 in WNW 5.8 mph 7.6 mph 63 % 0.0 in
11:29 15.1 °F 7.9 °F 1019.9 in WNW 7.4 mph 7.4 mph 62 % 0.0 in
11:34 15.2 °F 7.9 °F 1019.9 in NNW 5.6 mph 5.6 mph 62 % 0.0 in
11:39 15.2 °F 7.9 °F 1019.9 in NW 5.6 mph 5.6 mph 62 % 0.0 in
11:44 14.8 °F 7.3 °F 1019.9 in ENE 9.3 mph 9.5 mph 61 % 0.0 in
11:49 14.4 °F 6.9 °F 1019.9 in NNE 9.3 mph 9.3 mph 61 % 0.0 in
11:54 14.3 °F 6.9 °F 1019.9 in NE 14.8 mph 14.8 mph 61 % 0.0 in
11:59 14.2 °F 6.8 °F 1019.9 in East 9.3 mph 9.3 mph 61 % 0.0 in
12:04 14.2 °F 6.8 °F 1019.9 in WNW 13.0 mph 13.0 mph 61 % 0.0 in
12:09 14.5 °F 7.3 °F 1018.8 in ENE 6.4 mph 6.4 mph 62 % 0.0 in
12:14 14.6 °F 7.2 °F 1018.8 in NNW 5.6 mph 5.6 mph 61 % 0.0 in
12:19 14.7 °F 7.3 °F 1018.8 in ENE 9.3 mph 9.3 mph 61 % 0.0 in
12:24 14.5 °F 7.1 °F 1018.8 in NNE 9.0 mph 9.0 mph 61 % 0.0 in
12:29 14.6 °F 7.2 °F 1018.8 in NE 5.8 mph 5.8 mph 61 % 0.0 in
12:34 14.6 °F 7.2 °F 1018.8 in ESE 9.5 mph 9.5 mph 61 % 0.0 in
12:39 14.5 °F 7.1 °F 1018.8 in NNE 9.3 mph 9.3 mph 61 % 0.0 in
12:44 14.6 °F 7.2 °F 1018.8 in NE 18.5 mph 18.5 mph 61 % 0.0 in
12:49 14.4 °F 6.9 °F 1018.8 in NNE 11.1 mph 11.1 mph 61 % 0.0 in
12:54 14.5 °F 7.1 °F 1017.8 in NNE 11.9 mph 11.9 mph 61 % 0.0 in
12:59 14.6 °F 7.2 °F 1017.8 in ENE 13.0 mph 13.0 mph 61 % 0.0 in
13:04 14.7 °F 7.3 °F 1017.8 in ENE 11.1 mph 11.1 mph 61 % 0.0 in
13:09 14.7 °F 7.3 °F 1017.8 in ENE 10.0 mph 10.0 mph 61 % 0.0 in
13:14 14.6 °F 7.2 °F 1017.8 in NNE 9.3 mph 9.3 mph 61 % 0.0 in
13:19 14.6 °F 7.2 °F 1017.8 in ENE 7.4 mph 7.4 mph 61 % 0.0 in
13:24 14.5 °F 7.1 °F 1017.8 in NE 7.9 mph 7.9 mph 61 % 0.0 in
13:29 14.5 °F 7.1 °F 1017.8 in NE 13.0 mph 13.0 mph 61 % 0.0 in
13:34 14.4 °F 6.7 °F 1017.8 in NNE 13.7 mph 13.7 mph 60 % 0.0 in
13:39 14.5 °F 7.1 °F 1017.8 in NNE 7.4 mph 7.4 mph 61 % 0.0 in
13:44 14.7 °F 7.3 °F 1017.8 in NNE 8.7 mph 8.7 mph 61 % 0.0 in
13:49 14.7 °F 7.3 °F 1017.8 in NNE 7.4 mph 7.4 mph 61 % 0.0 in
13:54 14.7 °F 7.3 °F 1017.8 in NNE 13.0 mph 13.0 mph 61 % 0.0 in
13:59 14.7 °F 7.3 °F 1017.8 in NNE 3.7 mph 3.9 mph 61 % 0.0 in
14:04 14.9 °F 7.4 °F 1015.8 in NNE 9.3 mph 9.3 mph 61 % 0.0 in
14:09 14.9 °F 7.4 °F 1015.8 in North 9.3 mph 9.3 mph 61 % 0.0 in
14:14 15.0 °F 7.6 °F 1015.8 in NNE 6.4 mph 6.4 mph 61 % 0.0 in
14:19 15.2 °F 7.7 °F 1015.8 in NE 7.4 mph 7.4 mph 61 % 0.0 in
14:24 15.1 °F 7.4 °F 1015.8 in ESE 7.4 mph 7.4 mph 60 % 0.0 in
14:29 15.2 °F 7.5 °F 1015.8 in NE 5.8 mph 5.8 mph 60 % 0.0 in
14:30 15.2 °F 7.7 °F 1015.8 in NE 5.6 mph 5.6 mph 61 % 0.0 in
14:35 15.2 °F 7.5 °F 1014.8 in NNE 11.1 mph 11.1 mph 60 % 0.0 in
14:40 15.2 °F 7.5 °F 1014.8 in NNE 5.6 mph 5.6 mph 60 % 0.0 in
14:45 15.4 °F 7.7 °F 1014.8 in NNE 11.1 mph 11.1 mph 60 % 0.0 in
14:50 15.5 °F 7.8 °F 1014.8 in NW 9.3 mph 9.3 mph 60 % 0.0 in
14:55 15.5 °F 7.8 °F 1014.8 in NNE 9.3 mph 9.3 mph 60 % 0.0 in
15:00 15.6 °F 7.8 °F 1014.8 in ENE 5.6 mph 5.6 mph 60 % 0.0 in
15:05 16.2 °F 8.4 °F 1014.8 in SW 3.7 mph 3.7 mph 60 % 0.0 in
15:09 16.7 °F 8.9 °F 1014.8 in SSW 7.4 mph 7.4 mph 60 % 0.0 in
15:14 17.7 °F 9.3 °F 1014.8 in WNW 7.4 mph 7.4 mph 58 % 0.0 in
15:19 18.0 °F 9.1 °F 1015.8 in WNW 9.3 mph 9.3 mph 56 % 0.0 in
15:24 18.0 °F 8.8 °F 1015.8 in SW 3.7 mph 3.7 mph 55 % 0.0 in
15:29 18.1 °F 8.9 °F 1015.8 in West 9.3 mph 9.3 mph 55 % 0.0 in
15:34 18.2 °F 8.7 °F 1015.8 in NE 3.7 mph 3.7 mph 54 % 0.0 in
15:39 18.4 °F 8.9 °F 1015.8 in WSW 5.6 mph 5.6 mph 54 % 0.0 in
15:49 18.5 °F 9.0 °F 1015.8 in WSW 1.9 mph 1.9 mph 54 % 0.0 in
15:54 18.6 °F 9.1 °F 1015.8 in SW 5.6 mph 5.6 mph 54 % 0.0 in
15:59 18.5 °F 8.7 °F 1015.8 in East 3.7 mph 3.7 mph 53 % 0.0 in
16:04 17.9 °F 8.2 °F 1015.8 in NNW 3.7 mph 3.7 mph 53 % 0.0 in
16:09 17.2 °F 7.8 °F 1015.8 in NNW 5.6 mph 5.6 mph 54 % 0.0 in
16:14 17.1 °F 7.7 °F 1015.8 in NW 3.7 mph 3.7 mph 54 % 0.0 in
16:19 16.8 °F 7.7 °F 1014.8 in NNE 5.6 mph 5.6 mph 55 % 0.0 in
16:24 16.6 °F 7.5 °F 1014.8 in NNE 6.4 mph 6.4 mph 55 % 0.0 in
16:29 16.1 °F 7.3 °F 1014.8 in SE 5.6 mph 5.6 mph 56 % 0.0 in
16:34 15.9 °F 7.1 °F 1014.8 in ENE 9.3 mph 9.3 mph 56 % 0.0 in
16:39 15.8 °F 7.1 °F 1014.8 in NE 3.7 mph 3.7 mph 56 % 0.0 in
16:44 15.6 °F 6.8 °F 1014.8 in ENE 3.9 mph 3.9 mph 56 % 0.0 in
16:49 15.6 °F 7.1 °F 1015.8 in ENE 7.4 mph 7.4 mph 57 % 0.0 in
16:54 15.5 °F 7.0 °F 1015.8 in NE 5.6 mph 5.6 mph 57 % 0.0 in
16:59 15.2 °F 6.7 °F 1015.8 in NE 5.6 mph 5.6 mph 57 % 0.0 in
17:04 15.1 °F 6.6 °F 1014.8 in NNE 3.7 mph 3.7 mph 57 % 0.0 in
17:09 14.9 °F 6.7 °F 1014.8 in NNE 5.6 mph 5.6 mph 58 % 0.0 in
17:14 14.8 °F 6.6 °F 1014.8 in ESE 1.9 mph   58 % 0.0 in
17:19 14.9 °F 6.7 °F 1014.8 in SW 3.7 mph 3.7 mph 58 % 0.0 in
17:24 14.8 °F 6.8 °F 1014.8 in Calm     59 % 0.0 in
17:29 14.7 °F 6.8 °F 1014.8 in WNW 2.6 mph 2.6 mph 59 % 0.0 in
17:34 14.6 °F 6.7 °F 1014.8 in SW 3.7 mph 3.7 mph 59 % 0.0 in
17:39 14.4 °F 6.7 °F 1014.8 in West 3.7 mph 3.7 mph 60 % 0.0 in
17:44 14.4 °F 6.7 °F 1014.8 in Calm     60 % 0.0 in
17:49 14.3 °F 6.6 °F 1013.8 in WSW 3.9 mph 3.9 mph 60 % 0.0 in
17:54 14.1 °F 6.4 °F 1013.8 in WNW 3.7 mph 3.7 mph 60 % 0.0 in
17:59 14.2 °F 6.6 °F 1013.8 in NNE 3.7 mph 3.7 mph 60 % 0.0 in
18:04 13.8 °F 6.4 °F 1014.8 in NNE 5.6 mph 5.6 mph 61 % 0.0 in
18:09 13.6 °F 6.2 °F 1014.8 in ENE 4.7 mph 4.7 mph 61 % 0.0 in
18:14 13.6 °F 6.4 °F 1014.8 in NNE 7.4 mph 7.4 mph 62 % 0.0 in
18:19 13.6 °F 6.4 °F 1014.8 in ENE 5.6 mph 5.6 mph 62 % 0.0 in
18:24 13.4 °F 6.3 °F 1014.8 in North 4.2 mph 4.2 mph 62 % 0.0 in
18:29 13.4 °F 6.3 °F 1014.8 in NNE 3.7 mph 3.7 mph 62 % 0.0 in
18:34 13.3 °F 6.2 °F 1014.8 in NNE 1.9 mph   62 % 0.0 in
18:39 13.3 °F 6.2 °F 1014.8 in WNW 3.7 mph 3.7 mph 62 % 0.0 in
18:44 13.2 °F 6.1 °F 1014.8 in Calm     62 % 0.0 in
18:49 13.2 °F 6.1 °F 1014.8 in NNE 1.9 mph 1.9 mph 62 % 0.0 in
18:54 13.1 °F 6.2 °F 1014.8 in NNE 1.9 mph 1.9 mph 63 % 0.0 in
18:55 13.1 °F 6.2 °F 1014.8 in NNE 1.9 mph   63 % 0.0 in
19:00 12.9 °F 6.0 °F 1014.8 in Calm     63 % 0.0 in
19:05 12.9 °F 6.0 °F 1014.8 in Calm     63 % 0.0 in
19:10 12.8 °F 5.9 °F 1014.8 in WNW 1.9 mph   63 % 0.0 in
19:15 12.5 °F 5.9 °F 1014.8 in WSW 2.6 mph 2.6 mph 64 % 0.0 in
19:20 12.5 °F 5.9 °F 1013.8 in Calm     64 % 0.0 in
19:25 12.4 °F 5.8 °F 1013.8 in West 1.9 mph 1.9 mph 64 % 0.0 in
19:30 12.5 °F 5.9 °F 1013.8 in West 3.7 mph 3.7 mph 64 % 0.0 in
19:35 12.6 °F 5.9 °F 1013.8 in WSW 3.7 mph 3.7 mph 64 % 0.0 in
19:40 12.5 °F 5.9 °F 1013.8 in West 2.3 mph 2.3 mph 64 % 0.0 in
19:45 12.4 °F 5.8 °F 1013.8 in West 1.9 mph   64 % 0.0 in
19:50 12.4 °F 6.0 °F 1013.8 in West 2.6 mph 2.6 mph 65 % 0.0 in
19:55 12.4 °F 5.8 °F 1013.8 in SW 5.6 mph 5.6 mph 64 % 0.0 in
20:00 12.4 °F 6.0 °F 1013.8 in WSW 3.2 mph   65 % 0.0 in
20:05 12.3 °F 5.9 °F 1013.8 in WNW 3.7 mph 3.7 mph 65 % 0.0 in
20:10 12.4 °F 6.0 °F 1013.8 in West 1.9 mph   65 % 0.0 in
20:15 12.3 °F 5.9 °F 1013.8 in WNW 3.9 mph 3.9 mph 65 % 0.0 in
20:20 12.4 °F 6.0 °F 1013.8 in WSW 5.6 mph 5.6 mph 65 % 0.0 in
20:21 12.4 °F 6.0 °F 1013.8 in SW 5.6 mph 5.6 mph 65 % 0.0 in
20:26 12.8 °F 6.2 °F 1013.8 in West 3.7 mph 3.7 mph 64 % 0.0 in
20:31 13.1 °F 6.4 °F 1013.8 in WSW 5.6 mph 5.6 mph 64 % 0.0 in
20:36 13.2 °F 6.6 °F 1013.8 in West 5.6 mph 5.6 mph 64 % 0.0 in
20:41 13.5 °F 6.6 °F 1013.8 in WSW 9.3 mph 9.3 mph 63 % 0.0 in
20:46 13.7 °F 6.8 °F 1013.8 in West 7.4 mph 7.4 mph 63 % 0.0 in
20:51 13.7 °F 6.8 °F 1012.8 in WSW 7.4 mph 7.4 mph 63 % 0.0 in
20:56 13.7 °F 6.6 °F 1012.8 in WSW 6.9 mph 6.9 mph 62 % 0.0 in
21:06 13.7 °F 6.6 °F 1012.8 in West 5.6 mph 5.6 mph 62 % 0.0 in
21:11 13.5 °F 6.3 °F 1012.8 in West 7.4 mph 7.4 mph 62 % 0.0 in
21:16 13.6 °F 6.4 °F 1012.8 in WSW 5.6 mph 5.6 mph 62 % 0.0 in
21:21 13.5 °F 6.3 °F 1012.8 in WSW 3.5 mph   62 % 0.0 in
21:26 13.4 °F 6.3 °F 1012.8 in WSW 2.3 mph 2.3 mph 62 % 0.0 in
21:31 13.4 °F 6.3 °F 1012.8 in SW 1.9 mph   62 % 0.0 in
21:36 13.2 °F 6.1 °F 1011.7 in Calm     62 % 0.0 in
21:41 13.1 °F 6.0 °F 1011.7 in NNE 3.2 mph 3.2 mph 62 % 0.0 in
21:46 13.1 °F 6.0 °F 1011.7 in NW 3.7 mph 3.7 mph 62 % 0.0 in
21:51 13.0 °F 5.9 °F 1011.7 in NNW 5.6 mph 5.6 mph 62 % 0.0 in
21:56 12.8 °F 5.7 °F 1011.7 in West 3.7 mph 3.7 mph 62 % 0.0 in
22:01 12.5 °F 5.4 °F 1011.7 in SW 3.7 mph 3.7 mph 62 % 0.0 in
22:06 12.5 °F 5.4 °F 1011.7 in WSW 4.2 mph   62 % 0.0 in
22:11 12.2 °F 5.3 °F 1011.7 in WNW 4.2 mph 4.2 mph 63 % 0.0 in
22:16 12.4 °F 5.6 °F 1011.7 in WSW 5.6 mph 5.6 mph 63 % 0.0 in
22:21 12.7 °F 5.8 °F 1011.7 in WSW 5.6 mph 5.6 mph 63 % 0.0 in
22:23 12.7 °F 5.8 °F 1011.7 in WSW 7.4 mph 7.4 mph 63 % 0.0 in
22:26 12.7 °F 5.8 °F 1011.7 in NNW 3.9 mph 3.9 mph 63 % 0.0 in
22:31 12.7 °F 5.8 °F 1011.7 in West 5.8 mph 5.8 mph 63 % 0.0 in
22:36 12.7 °F 5.8 °F 1011.7 in WSW 7.4 mph 7.4 mph 63 % 0.0 in
22:41 12.7 °F 5.8 °F 1011.7 in WNW 5.6 mph 5.6 mph 63 % 0.0 in
22:46 12.7 °F 5.8 °F 1011.7 in SSE 3.7 mph 3.7 mph 63 % 0.0 in
22:51 12.8 °F 5.9 °F 1011.7 in SSW 3.7 mph 3.7 mph 63 % 0.0 in
22:56 12.7 °F 5.8 °F 1011.7 in WNW 3.7 mph   63 % 0.0 in
23:01 12.7 °F 5.8 °F 1011.7 in WSW 3.7 mph 3.7 mph 63 % 0.0 in
23:06 12.8 °F 5.9 °F 1010.7 in NNW 9.5 mph 9.5 mph 63 % 0.0 in
23:11 12.8 °F 5.9 °F 1010.7 in NW 3.9 mph 3.9 mph 63 % 0.0 in
23:16 12.9 °F 6.0 °F 1010.7 in South 9.3 mph 9.3 mph 63 % 0.0 in
23:21 13.0 °F 6.1 °F 1010.7 in SW 14.8 mph 14.8 mph 63 % 0.0 in
23:26 13.2 °F 6.6 °F 1010.7 in West 14.8 mph 14.8 mph 64 % 0.0 in
23:31 13.3 °F 6.6 °F 1010.7 in WSW 13.0 mph 13.0 mph 64 % 0.0 in
23:36 13.4 °F 6.7 °F 1010.7 in WSW 13.0 mph 13.0 mph 64 % 0.0 in
23:41 13.4 °F 6.7 °F 1010.7 in WNW 22.5 mph 22.5 mph 64 % 0.0 in
23:46 13.4 °F 6.7 °F 1010.7 in SW 14.8 mph 14.8 mph 64 % 0.0 in
23:51 13.4 °F 6.7 °F 1010.0 in West 14.8 mph 14.8 mph 64 % 0.0 in
23:56 13.3 °F 6.6 °F 1010.0 in West 7.4 mph 7.4 mph 64 % 0.0 in
Meteo Sesrovires
Elogis d' Weather Underground - 1.75 mb

Guio original per  Jim McMurry - jmcmurry@mwt.net Adaptat per a la plantilla per  Wim van der Kuil - Leuven-Template.eu

Trobareu la nostra informacio del temps tambe a:

Weather Underground

AWEKAS